This is the latest recevied weather packets stored in our database for station/object K4MGY-13. If no packets are shown the sender has not sent any weather packets the latest 10 day(s).
| Time | Temp. | Humidity | Pressure | Rain* | Wind** | Luminosity | Snow |
|---|---|---|---|---|---|---|---|
| 1777768565 | 11.67° C | 74% | 1018.3 hPa | 0 mm | - | - | - |
| 1777768234 | 11.67° C | 73% | 1017.9 hPa | 0 mm | - | - | - |
| 1777767606 | 12.22° C | 74% | 1017.9 hPa | 0 mm | - | - | - |
| 1777767304 | 12.78° C | 73% | 1017.7 hPa | 0 mm | - | - | - |
| 1777767004 | 12.78° C | 71% | 1017.6 hPa | 0 mm | - | - | - |
| 1777766704 | 12.78° C | 71% | 1017.6 hPa | 0.25 mm | - | - | - |
| 1777766404 | 12.78° C | 72% | 1017.3 hPa | 0.25 mm | - | - | - |
| 1777766104 | 12.78° C | 72% | 1017.3 hPa | 0.25 mm | - | - | - |
| 1777765805 | 12.22° C | 72% | 1017.3 hPa | 0.25 mm | - | - | - |
| 1777765506 | 12.22° C | 73% | 1017.1 hPa | 0.25 mm | - | - | - |
| 1777765204 | 12.22° C | 73% | 1017.1 hPa | 0.25 mm | - | - | - |
| 1777764874 | 12.22° C | 73% | 1017.3 hPa | 0.25 mm | - | - | - |
| 1777764244 | 12.22° C | 72% | 1016.9 hPa | 0.51 mm | - | - | - |
| 1777763914 | 12.22° C | 72% | 1016.6 hPa | 0.51 mm | - | - | - |
| 1777763584 | 12.22° C | 72% | 1016.9 hPa | 0.51 mm | - | - | - |
| 1777763284 | 12.22° C | 70% | 1016.9 hPa | 0.25 mm | - | - | - |
| 1777762984 | 12.78° C | 69% | 1016.9 hPa | 0.25 mm | - | - | - |
| 1777762684 | 12.78° C | 70% | 1016.9 hPa | 0.25 mm | - | - | - |
| 1777762354 | 13.33° C | 66% | 1016.4 hPa | 0.25 mm | - | - | - |
| 1777762054 | 13.33° C | 63% | 1016.4 hPa | 0.25 mm | - | - | - |
| 1777761754 | 13.33° C | 61% | 1016.6 hPa | 0.25 mm | - | - | - |
| 1777761454 | 13.89° C | 60% | 1016.5 hPa | 0.25 mm | - | - | - |
| 1777761156 | 14.44° C | 60% | 1016.6 hPa | 0.25 mm | - | - | - |
| 1777760824 | 15.56° C | 53% | 1016.3 hPa | 0 mm | - | - | - |
| 1777760524 | 16.11° C | 49% | 1015.9 hPa | 0 mm | - | - | - |
* Rain latest hour (hover to see other rain measurements)
** Current wind speed in m/s (hover to see current wind gust speed)